Time;durP1;ratioP1;P1;durP2;ratioP2;P2;SDS_P1;SDS_P2;PMS_P1;PMS_P2;Temp;Humidity;BMP_temperature;BMP_pressure;BME280_temperature;BME280_humidity;BME280_pressure;Samples;Min_cycle;Max_cycle;Signal;HPM_P1;HPM_P2
2023/07/18 00:00:43;;;;;;;4.70;3.30;;;;;;;18.90;88.58;96824.26;107889;1283;24404;-71
2023/07/18 00:03:34;;;;;;;4.30;3.90;;;;;;;18.93;88.55;96825.27;107872;1283;23055;-70
2023/07/18 00:06:05;;;;;;;3.70;3.30;;;;;;;18.94;88.43;96822.27;107870;1281;22574;-70
2023/07/18 00:08:36;;;;;;;5.00;3.50;;;;;;;18.95;88.53;96818.67;107891;1283;22523;-70
2023/07/18 00:11:07;;;;;;;5.10;4.00;;;;;;;18.95;88.41;96810.37;107887;1277;22528;-70
2023/07/18 00:13:38;;;;;;;5.90;3.80;;;;;;;18.93;88.25;96806.88;107899;1283;22530;-70
2023/07/18 00:16:09;;;;;;;5.80;4.00;;;;;;;18.91;88.32;96808.00;107911;1277;22539;-70
2023/07/18 00:18:40;;;;;;;4.80;4.00;;;;;;;18.90;88.19;96801.29;107878;1283;24046;-70
2023/07/18 00:21:12;;;;;;;5.40;3.50;;;;;;;18.91;88.32;96799.50;107893;1283;22556;-70
2023/07/18 00:23:43;;;;;;;5.00;3.80;;;;;;;18.89;88.18;96800.72;107766;1277;22549;-70
2023/07/18 00:26:14;;;;;;;4.70;4.10;;;;;;;18.88;88.17;96798.77;107882;1282;25251;-70
2023/07/18 00:28:45;;;;;;;6.70;3.60;;;;;;;18.88;88.12;96797.56;107866;1283;25383;-70
2023/07/18 00:31:18;;;;;;;4.80;3.40;;;;;;;18.88;87.91;96795.80;107858;1283;22545;-70
2023/07/18 00:33:49;;;;;;;4.30;3.60;;;;;;;18.84;87.73;96797.52;107887;1275;22637;-71
2023/07/18 00:36:20;;;;;;;3.80;3.30;;;;;;;18.82;87.70;96798.54;107885;1283;22530;-70
2023/07/18 00:38:52;;;;;;;4.20;3.70;;;;;;;18.82;87.68;96799.52;107887;1276;22553;-70
2023/07/18 00:41:23;;;;;;;5.00;3.70;;;;;;;18.82;87.72;96803.83;107854;1276;22532;-71
2023/07/18 00:43:54;;;;;;;3.80;3.50;;;;;;;18.83;87.78;96801.54;107877;1277;22544;-71
2023/07/18 00:46:25;;;;;;;4.30;3.90;;;;;;;18.82;87.86;96800.85;107894;1276;22595;-71
2023/07/18 00:48:57;;;;;;;5.60;3.90;;;;;;;18.86;87.72;96798.04;107871;1283;22659;-70
2023/07/18 00:51:30;;;;;;;6.50;3.80;;;;;;;18.89;87.64;96799.59;107857;1260;22536;-70
2023/07/18 00:54:02;;;;;;;4.60;3.70;;;;;;;18.92;87.49;96798.00;107905;1283;22533;-70
2023/07/18 00:56:34;;;;;;;3.50;3.20;;;;;;;18.93;87.25;96796.30;107940;1283;22613;-70
2023/07/18 00:59:07;;;;;;;4.20;3.40;;;;;;;18.94;87.28;96798.91;107920;1277;24421;-71
2023/07/18 01:01:38;;;;;;;4.90;3.60;;;;;;;18.93;87.08;96795.98;107837;1277;22533;-70
2023/07/18 01:04:09;;;;;;;4.90;3.70;;;;;;;18.94;87.16;96799.69;107862;1277;24260;-70
2023/07/18 01:06:41;;;;;;;4.60;3.50;;;;;;;18.95;87.00;96793.42;107890;1283;22563;-70
2023/07/18 01:09:12;;;;;;;4.20;3.80;;;;;;;18.96;86.94;96795.77;107935;1283;26229;-70
2023/07/18 01:11:44;;;;;;;5.10;3.70;;;;;;;18.97;86.90;96800.62;107833;1283;24240;-70
2023/07/18 01:14:15;;;;;;;6.80;4.10;;;;;;;18.96;86.80;96796.23;107938;1283;22546;-70
2023/07/18 01:16:46;;;;;;;4.20;3.70;;;;;;;18.93;86.66;96800.40;107911;1283;22566;-70
2023/07/18 01:19:17;;;;;;;5.00;4.00;;;;;;;18.90;86.72;96804.45;107864;1283;23137;-70
2023/07/18 01:21:48;;;;;;;5.00;3.80;;;;;;;18.88;86.80;96799.02;107900;1283;22545;-70
2023/07/18 01:24:19;;;;;;;6.90;3.90;;;;;;;18.86;86.85;96799.48;107895;1283;22731;-70
2023/07/18 01:26:52;;;;;;;5.40;4.10;;;;;;;18.84;86.87;96798.77;107943;1283;22607;-70
2023/07/18 01:29:23;;;;;;;4.10;3.50;;;;;;;18.83;86.79;96799.55;107894;1277;22544;-70
2023/07/18 01:31:55;;;;;;;5.20;3.60;;;;;;;18.79;86.72;96796.33;107831;1276;22548;-70
2023/07/18 01:34:26;;;;;;;4.30;3.80;;;;;;;18.72;86.68;96791.70;107905;1276;22589;-70
2023/07/18 01:36:56;;;;;;;5.20;3.80;;;;;;;18.67;86.75;96792.73;107903;1283;22622;-70
2023/07/18 01:39:27;;;;;;;6.80;3.60;;;;;;;18.60;86.72;96789.85;107905;1280;22538;-70
2023/07/18 01:41:58;;;;;;;5.60;3.90;;;;;;;18.55;86.87;96793.15;107851;1282;22539;-70
2023/07/18 01:44:29;;;;;;;4.90;3.80;;;;;;;18.51;87.06;96796.91;107898;1277;22551;-70
2023/07/18 01:47:02;;;;;;;5.20;3.70;;;;;;;18.49;87.14;96794.77;107871;1281;22537;-70
2023/07/18 01:49:35;;;;;;;8.30;3.90;;;;;;;18.46;87.11;96796.66;107922;1275;22636;-70
2023/07/18 01:52:07;;;;;;;4.80;3.80;;;;;;;18.42;87.16;96796.50;107896;1283;24358;-70
2023/07/18 01:54:38;;;;;;;5.40;3.70;;;;;;;18.40;86.98;96793.27;107937;1276;22556;-70
2023/07/18 01:57:09;;;;;;;4.10;3.70;;;;;;;18.30;86.94;96799.13;107906;1283;25363;-70
2023/07/18 01:59:44;;;;;;;5.50;3.70;;;;;;;18.25;87.04;96796.61;107838;1283;22598;-70
2023/07/18 02:02:15;;;;;;;6.60;4.10;;;;;;;18.22;87.17;96803.23;107871;1283;22817;-70
2023/07/18 02:04:46;;;;;;;5.90;4.10;;;;;;;18.23;87.23;96806.26;107871;1283;25327;-70
2023/07/18 02:07:17;;;;;;;8.60;4.00;;;;;;;18.23;87.25;96806.89;107896;1283;22703;-70
2023/07/18 02:09:49;;;;;;;5.30;3.80;;;;;;;18.20;87.15;96807.16;107915;1283;22517;-70
2023/07/18 02:12:20;;;;;;;5.40;4.20;;;;;;;18.21;87.36;96805.58;107887;1277;22545;-70
2023/07/18 02:14:51;;;;;;;5.40;3.90;;;;;;;18.25;87.52;96811.84;107890;1283;22566;-70
2023/07/18 02:17:22;;;;;;;4.40;3.70;;;;;;;18.26;87.54;96808.61;107851;1276;22552;-70
2023/07/18 02:19:53;;;;;;;5.10;4.30;;;;;;;18.29;87.56;96813.35;107869;1283;22537;-70
2023/07/18 02:22:25;;;;;;;6.10;3.90;;;;;;;18.30;87.58;96812.40;107870;1283;26936;-70
2023/07/18 02:24:56;;;;;;;4.80;4.00;;;;;;;18.32;87.68;96816.05;107879;1283;22594;-70
2023/07/18 02:27:26;;;;;;;4.90;3.80;;;;;;;18.34;87.63;96816.86;107841;1280;25437;-70
2023/07/18 02:29:59;;;;;;;5.80;4.10;;;;;;;18.35;87.68;96820.23;107865;1283;22538;-70
2023/07/18 02:32:32;;;;;;;6.20;4.20;;;;;;;18.31;87.69;96822.61;107829;1283;25272;-70
2023/07/18 02:35:03;;;;;;;5.70;3.90;;;;;;;18.25;87.85;96819.00;107960;1260;22537;-70
2023/07/18 02:37:34;;;;;;;5.40;4.40;;;;;;;18.22;88.00;96819.46;107832;1264;24343;-70
2023/07/18 02:40:09;;;;;;;4.40;3.90;;;;;;;18.17;88.05;96817.88;107959;1283;24240;-70
2023/07/18 02:42:40;;;;;;;5.10;4.10;;;;;;;18.13;88.13;96820.48;107912;1283;26844;-70
2023/07/18 02:45:14;;;;;;;5.90;4.50;;;;;;;18.09;88.23;96817.89;107916;1280;22566;-70
2023/07/18 02:47:46;;;;;;;7.70;4.00;;;;;;;18.08;88.28;96823.59;107903;1283;22541;-70
2023/07/18 02:50:17;;;;;;;6.20;4.40;;;;;;;18.06;88.29;96826.44;107904;1277;24245;-70
2023/07/18 02:52:49;;;;;;;5.50;3.90;;;;;;;18.03;88.25;96824.55;107885;1279;22534;-70
2023/07/18 02:55:20;;;;;;;6.00;4.60;;;;;;;18.00;88.24;96826.75;107993;1282;22534;-70
2023/07/18 02:57:53;;;;;;;4.90;4.00;;;;;;;17.96;88.40;96833.27;107923;1282;24230;-70
2023/07/18 03:00:25;;;;;;;4.70;4.00;;;;;;;17.92;88.43;96834.94;107929;1282;22548;-70
2023/07/18 03:02:56;;;;;;;4.80;4.00;;;;;;;17.86;88.34;96835.75;107866;1283;22687;-70
2023/07/18 03:05:29;;;;;;;5.40;3.30;;;;;;;17.82;88.40;96838.58;107920;1283;22563;-70
2023/07/18 03:08:00;;;;;;;4.40;4.00;;;;;;;17.78;88.48;96836.89;107844;1277;25414;-71
2023/07/18 03:10:31;;;;;;;4.40;3.50;;;;;;;17.71;88.54;96838.12;107912;1283;23706;-70
2023/07/18 03:13:02;;;;;;;4.80;4.00;;;;;;;17.66;88.82;96840.10;107941;1282;22544;-70
2023/07/18 03:15:33;;;;;;;4.50;3.90;;;;;;;17.67;89.17;96846.91;107965;1282;22548;-70
2023/07/18 03:18:04;;;;;;;5.80;4.00;;;;;;;17.74;89.25;96850.02;107936;1282;22590;-70
2023/07/18 03:20:35;;;;;;;6.80;4.40;;;;;;;17.80;89.14;96860.42;107899;1277;22556;-70
2023/07/18 03:23:06;;;;;;;8.80;4.10;;;;;;;17.87;89.18;96866.16;107926;1280;22667;-70
2023/07/18 03:25:37;;;;;;;5.20;4.40;;;;;;;17.94;89.05;96866.99;107862;1283;22563;-70
2023/07/18 03:28:08;;;;;;;6.50;4.40;;;;;;;18.00;88.81;96877.51;107878;1283;24427;-70
2023/07/18 03:30:40;;;;;;;4.70;4.20;;;;;;;18.04;88.59;96878.15;107918;1283;22531;-70
2023/07/18 03:33:12;;;;;;;6.50;4.10;;;;;;;18.04;88.27;96886.89;107894;1282;22654;-70
2023/07/18 03:35:43;;;;;;;6.10;4.30;;;;;;;18.04;88.47;96890.72;107982;1279;23313;-70
2023/07/18 03:38:16;;;;;;;5.50;4.10;;;;;;;18.04;88.52;96896.20;107934;1282;22792;-70
2023/07/18 03:40:51;;;;;;;5.80;3.70;;;;;;;18.04;88.47;96906.23;107931;1283;22526;-71
2023/07/18 03:43:22;;;;;;;5.80;4.60;;;;;;;18.05;88.57;96910.18;107950;1283;22553;-71
2023/07/18 03:45:53;;;;;;;5.80;4.90;;;;;;;18.14;88.69;96923.16;107900;1283;22565;-70
2023/07/18 03:48:26;;;;;;;8.20;6.50;;;;;;;18.26;88.89;96920.32;107863;1277;22533;-70
2023/07/18 03:50:57;;;;;;;6.00;4.60;;;;;;;18.50;88.99;96932.28;107878;1283;22561;-70
2023/07/18 03:53:28;;;;;;;7.10;5.20;;;;;;;18.59;88.46;96930.71;107955;1274;24259;-70
2023/07/18 03:56:06;;;;;;;11.00;8.60;;;;;;;18.59;88.33;96940.00;107932;1282;25259;-70
2023/07/18 03:58:37;;;;;;;11.30;10.10;;;;;;;18.62;88.49;96948.22;107968;1282;24605;-70
2023/07/18 04:01:12;;;;;;;13.20;10.40;;;;;;;18.67;88.79;96954.49;107934;1277;22582;-70
2023/07/18 04:03:43;;;;;;;20.20;17.00;;;;;;;18.71;88.88;96954.48;107949;1281;25401;-72
2023/07/18 04:06:15;;;;;;;20.00;18.10;;;;;;;18.77;89.39;96961.95;107947;1282;25338;-72
2023/07/18 04:08:46;;;;;;;21.00;18.80;;;;;;;18.81;89.80;96980.33;107941;1277;25294;-72
2023/07/18 04:11:17;;;;;;;24.20;21.80;;;;;;;18.85;90.03;96989.91;107844;1275;22626;-72
2023/07/18 04:13:51;;;;;;;27.00;24.10;;;;;;;18.86;90.24;96988.52;107906;1283;22533;-72
2023/07/18 04:16:22;;;;;;;31.30;28.20;;;;;;;18.86;90.46;97002.63;107841;1276;22537;-72
2023/07/18 04:18:53;;;;;;;28.10;25.30;;;;;;;18.85;90.70;97001.48;107872;1283;22543;-72
2023/07/18 04:21:25;;;;;;;27.70;24.80;;;;;;;18.85;90.86;97008.55;107888;1275;23009;-72
2023/07/18 04:23:57;;;;;;;28.20;25.30;;;;;;;18.86;91.13;97015.58;107965;1283;24521;-72
2023/07/18 04:26:28;;;;;;;27.90;25.20;;;;;;;18.87;91.43;97024.02;107976;1282;22524;-72
2023/07/18 04:28:59;;;;;;;20.90;18.50;;;;;;;18.89;91.37;97032.36;107957;1274;22541;-72
2023/07/18 04:31:30;;;;;;;20.00;15.10;;;;;;;18.86;90.56;97039.60;107889;1281;22541;-72
2023/07/18 04:34:01;;;;;;;16.30;14.10;;;;;;;18.85;90.43;97051.00;107846;1283;24000;-72
2023/07/18 04:36:33;;;;;;;16.60;13.00;;;;;;;18.83;89.96;97062.45;107911;1277;22530;-72
2023/07/18 04:39:04;;;;;;;14.10;10.30;;;;;;;18.80;89.32;97070.20;107850;1277;22559;-72
2023/07/18 04:41:35;;;;;;;12.40;9.60;;;;;;;18.72;88.71;97073.58;107910;1282;22517;-72
2023/07/18 04:44:06;;;;;;;13.60;9.20;;;;;;;18.69;88.50;97077.27;107959;1264;24203;-72
2023/07/18 04:46:37;;;;;;;9.80;7.90;;;;;;;18.65;87.97;97079.71;107859;1283;163538;-72
2023/07/18 04:49:08;;;;;;;9.10;7.50;;;;;;;18.60;87.13;97079.96;107960;1279;22664;-72
2023/07/18 04:51:39;;;;;;;13.10;8.30;;;;;;;18.59;86.91;97083.33;107971;1277;24378;-72
2023/07/18 04:54:10;;;;;;;13.30;9.60;;;;;;;18.60;86.90;97082.87;107866;1272;22547;-71
2023/07/18 04:56:41;;;;;;;11.30;9.10;;;;;;;18.58;86.74;97089.64;107923;1283;24542;-72
2023/07/18 04:59:13;;;;;;;10.30;8.40;;;;;;;18.50;86.36;97089.69;107895;1281;26476;-72
2023/07/18 05:01:44;;;;;;;11.30;7.90;;;;;;;18.37;85.95;97094.21;107906;1283;22752;-72
2023/07/18 05:04:15;;;;;;;9.10;6.90;;;;;;;18.25;85.50;97095.89;107917;1276;24227;-72
2023/07/18 05:06:48;;;;;;;9.40;7.10;;;;;;;18.21;85.35;97102.61;107938;1283;22544;-72
2023/07/18 05:09:19;;;;;;;10.70;7.40;;;;;;;18.21;85.43;97105.01;107848;1277;23385;-72
2023/07/18 05:11:50;;;;;;;11.40;7.80;;;;;;;18.25;85.44;97110.37;107887;1283;22549;-72
2023/07/18 05:14:24;;;;;;;11.80;8.10;;;;;;;18.27;85.63;97108.25;107969;1275;23828;-72
2023/07/18 05:16:55;;;;;;;11.70;8.50;;;;;;;18.27;85.44;97105.23;107970;1275;22607;-72
2023/07/18 05:19:26;;;;;;;11.30;7.90;;;;;;;18.20;85.20;97109.36;107943;1283;22569;-72
2023/07/18 05:21:58;;;;;;;11.70;8.10;;;;;;;18.13;85.36;97114.02;107938;1274;24290;-72
2023/07/18 05:24:29;;;;;;;12.20;7.90;;;;;;;18.13;85.56;97114.18;107902;1283;25412;-72
2023/07/18 05:27:00;;;;;;;10.60;7.00;;;;;;;18.16;85.04;97118.02;107866;1283;22533;-72
2023/07/18 05:29:31;;;;;;;10.80;7.40;;;;;;;18.17;84.52;97117.67;107854;1283;22533;-72
2023/07/18 05:32:02;;;;;;;9.70;6.00;;;;;;;18.18;84.11;97113.50;107883;1282;22531;-71
2023/07/18 05:34:34;;;;;;;9.10;5.70;;;;;;;18.17;83.67;97112.94;107945;1283;25355;-72
2023/07/18 05:37:06;;;;;;;8.60;6.30;;;;;;;18.17;83.07;97111.77;107967;1275;22536;-71
2023/07/18 05:39:37;;;;;;;10.20;6.30;;;;;;;18.19;82.86;97117.33;107951;1283;22559;-72
2023/07/18 05:42:09;;;;;;;7.70;5.90;;;;;;;18.26;82.89;97109.27;107881;1279;22669;-71
2023/07/18 05:44:40;;;;;;;12.50;6.40;;;;;;;18.34;82.58;97104.41;107877;1283;22531;-72
2023/07/18 05:47:11;;;;;;;11.30;6.10;;;;;;;18.40;82.51;97104.51;107853;1280;22533;-72
2023/07/18 05:49:42;;;;;;;8.20;6.20;;;;;;;18.65;83.14;97110.95;107870;1277;22531;-72
2023/07/18 05:52:13;;;;;;;12.60;5.90;;;;;;;18.97;83.14;97110.70;107907;1275;24212;-72
2023/07/18 05:54:45;;;;;;;11.70;6.00;;;;;;;19.16;82.78;97118.61;107955;1282;22609;-72
2023/07/18 05:57:16;;;;;;;11.50;6.40;;;;;;;19.52;83.72;97121.95;107965;1275;22538;-72
2023/07/18 05:59:48;;;;;;;10.30;5.80;;;;;;;20.21;83.99;97124.41;107953;1283;22668;-72
2023/07/18 06:02:20;;;;;;;6.90;5.60;;;;;;;21.29;84.21;97118.79;107887;1283;22785;-72
2023/07/18 06:04:51;;;;;;;10.70;5.90;;;;;;;22.26;81.96;97120.88;107924;1278;22567;-72
2023/07/18 06:07:22;;;;;;;9.30;5.20;;;;;;;22.92;79.90;97124.39;107878;1278;25445;-72
2023/07/18 06:09:53;;;;;;;9.80;4.60;;;;;;;23.52;78.32;97131.52;107843;1277;22649;-72
2023/07/18 06:12:24;;;;;;;7.00;4.50;;;;;;;23.79;74.19;97132.70;107856;1282;25549;-72
2023/07/18 06:14:55;;;;;;;7.70;4.20;;;;;;;23.76;71.86;97135.33;107953;1278;25339;-72
2023/07/18 06:17:28;;;;;;;7.10;4.30;;;;;;;23.56;70.34;97134.52;107934;1282;22527;-72
2023/07/18 06:20:01;;;;;;;5.30;3.90;;;;;;;23.66;70.11;97134.64;107961;1280;25359;-72
2023/07/18 06:22:33;;;;;;;7.00;4.30;;;;;;;24.13;69.36;97133.95;107870;1283;22513;-72
2023/07/18 06:25:04;;;;;;;6.50;3.90;;;;;;;24.56;68.34;97136.98;107865;1277;22540;-72
2023/07/18 06:27:35;;;;;;;7.50;4.30;;;;;;;24.90;66.73;97136.09;107885;1277;24354;-73
2023/07/18 06:30:09;;;;;;;7.10;4.60;;;;;;;24.79;65.10;97137.14;107873;1283;22546;-72
2023/07/18 06:32:40;;;;;;;8.20;4.30;;;;;;;24.64;64.53;97141.88;107923;1282;22531;-72
2023/07/18 06:35:12;;;;;;;8.30;3.90;;;;;;;24.66;64.94;97137.81;107980;1282;22530;-72
2023/07/18 06:37:44;;;;;;;5.30;4.00;;;;;;;25.11;65.34;97143.11;107965;1282;24254;-72
2023/07/18 06:40:17;;;;;;;10.30;4.50;;;;;;;25.23;63.34;97146.19;107953;1275;24215;-71
2023/07/18 06:42:48;;;;;;;6.50;4.10;;;;;;;24.48;61.18;97149.19;107962;1282;22541;-72
2023/07/18 06:45:19;;;;;;;5.60;3.60;;;;;;;23.86;60.72;97153.38;107937;1282;22527;-72
2023/07/18 06:47:50;;;;;;;6.60;3.70;;;;;;;23.43;60.97;97157.71;107988;1283;25916;-73
2023/07/18 06:50:21;;;;;;;8.10;3.80;;;;;;;23.31;60.91;97158.42;107995;1282;22617;-73
2023/07/18 06:52:53;;;;;;;6.80;4.10;;;;;;;23.17;60.88;97156.80;107860;1283;25272;-73
2023/07/18 06:55:24;;;;;;;5.20;3.60;;;;;;;23.09;61.03;97159.06;107871;1283;25310;-72
2023/07/18 06:57:55;;;;;;;5.30;3.50;;;;;;;23.47;61.28;97166.02;107842;1283;22654;-73
2023/07/18 07:00:26;;;;;;;7.60;4.00;;;;;;;23.77;60.55;97165.46;107849;1276;25383;-73
2023/07/18 07:02:58;;;;;;;5.20;3.70;;;;;;;24.08;60.49;97161.63;107847;1277;22609;-73
2023/07/18 07:05:29;;;;;;;6.10;3.40;;;;;;;24.37;59.66;97169.66;107845;1283;22527;-73
2023/07/18 07:08:00;;;;;;;5.20;3.50;;;;;;;24.61;59.23;97177.60;107856;1260;23014;-73
2023/07/18 07:10:32;;;;;;;6.90;3.80;;;;;;;25.01;58.62;97173.46;107850;1277;23309;-72
2023/07/18 07:13:03;;;;;;;5.20;3.50;;;;;;;25.40;58.46;97169.94;107824;1280;22553;-73
2023/07/18 07:15:35;;;;;;;5.70;3.80;;;;;;;25.77;57.53;97173.46;107832;1274;22523;-72
2023/07/18 07:18:06;;;;;;;6.60;3.10;;;;;;;25.94;56.36;97178.40;107862;1283;22558;-71
2023/07/18 07:20:38;;;;;;;4.70;3.20;;;;;;;25.77;55.37;97179.12;107857;1280;24443;-71
2023/07/18 07:23:11;;;;;;;5.70;3.20;;;;;;;25.59;54.63;97181.04;107976;1283;25311;-72
2023/07/18 07:25:43;;;;;;;7.70;3.40;;;;;;;25.68;54.82;97183.31;107959;1279;23290;-72
2023/07/18 07:28:15;;;;;;;5.70;3.40;;;;;;;25.73;54.19;97177.66;107959;1280;23407;-72
2023/07/18 07:30:45;;;;;;;6.50;3.90;;;;;;;26.04;54.78;97179.46;107961;1281;24229;-73
2023/07/18 07:33:16;;;;;;;8.80;3.30;;;;;;;26.32;53.88;97179.10;107872;1283;22536;-73
2023/07/18 07:35:48;;;;;;;5.70;4.10;;;;;;;26.43;54.14;97174.16;107854;1277;22852;-72
2023/07/18 07:38:21;;;;;;;6.20;3.60;;;;;;;26.32;53.61;97179.96;107909;1283;22529;-72
2023/07/18 07:40:53;;;;;;;7.60;3.90;;;;;;;26.52;54.19;97178.40;107871;1283;22533;-73
2023/07/18 07:43:24;;;;;;;5.60;4.10;;;;;;;26.78;54.19;97178.66;107861;1280;22748;-73
2023/07/18 07:45:56;;;;;;;7.00;3.60;;;;;;;26.77;52.85;97181.83;107875;1277;22838;-72
2023/07/18 07:48:27;;;;;;;5.50;3.40;;;;;;;26.44;51.98;97189.33;107866;1277;25270;-73
2023/07/18 07:51:00;;;;;;;4.60;2.90;;;;;;;26.45;51.80;97187.48;107893;1283;22534;-72
2023/07/18 07:53:32;;;;;;;5.80;3.20;;;;;;;26.05;50.58;97188.10;107924;1277;24280;-72
2023/07/18 07:56:03;;;;;;;8.60;3.10;;;;;;;25.52;50.93;97186.89;107881;1277;22518;-71
2023/07/18 07:58:36;;;;;;;3.50;2.90;;;;;;;25.36;51.24;97187.02;107927;1283;25356;-72
2023/07/18 08:01:11;;;;;;;5.80;3.10;;;;;;;25.44;51.27;97189.55;107930;1280;22694;-72
2023/07/18 08:03:42;;;;;;;5.80;3.00;;;;;;;25.41;50.86;97187.57;107888;1283;24235;-72
2023/07/18 08:06:13;;;;;;;6.60;3.00;;;;;;;25.16;51.17;97190.81;107872;1280;22601;-73
2023/07/18 08:08:44;;;;;;;5.30;3.30;;;;;;;25.12;51.51;97194.23;107855;1273;22543;-73
2023/07/18 08:11:15;;;;;;;4.70;3.10;;;;;;;24.99;51.39;97190.77;107837;1274;23038;-73
2023/07/18 08:13:47;;;;;;;7.10;3.60;;;;;;;24.77;51.61;97189.17;107889;1283;22645;-72
2023/07/18 08:16:18;;;;;;;4.60;3.30;;;;;;;24.44;51.88;97183.90;107956;1280;22529;-72
2023/07/18 08:18:49;;;;;;;6.80;3.10;;;;;;;24.28;52.48;97184.30;107863;1277;22539;-72
2023/07/18 08:21:20;;;;;;;6.10;3.00;;;;;;;24.30;52.37;97184.59;107835;1283;25179;-72
2023/07/18 08:23:52;;;;;;;5.70;3.10;;;;;;;24.12;51.52;97183.92;107843;1283;24881;-72
2023/07/18 08:26:23;;;;;;;5.50;2.70;;;;;;;23.98;51.50;97186.23;107884;1283;26441;-72
2023/07/18 08:28:54;;;;;;;4.20;2.70;;;;;;;24.38;51.78;97180.67;107903;1283;22538;-72
2023/07/18 08:31:26;;;;;;;4.20;2.30;;;;;;;24.53;50.63;97183.48;107856;1276;22534;-72
2023/07/18 08:33:57;;;;;;;4.50;2.30;;;;;;;24.58;50.58;97178.31;107868;1280;23375;-72
2023/07/18 08:36:31;;;;;;;5.30;2.60;;;;;;;24.92;50.97;97168.86;107873;1283;24281;-72
2023/07/18 08:39:02;;;;;;;3.40;2.20;;;;;;;25.08;50.22;97170.67;107880;1280;22524;-72
2023/07/18 08:41:34;;;;;;;3.70;2.10;;;;;;;24.99;49.60;97168.98;107830;1280;22537;-72
2023/07/18 08:44:07;;;;;;;2.40;1.80;;;;;;;25.07;49.60;97171.13;107843;1280;24431;-72
2023/07/18 08:46:39;;;;;;;6.40;2.10;;;;;;;24.99;48.59;97176.27;107897;1278;22533;-73
2023/07/18 08:49:14;;;;;;;5.00;2.10;;;;;;;25.00;48.41;97178.16;107819;1283;22635;-72
2023/07/18 08:51:48;;;;;;;5.20;2.40;;;;;;;25.05;47.98;97177.18;107846;1283;22538;-72
2023/07/18 08:54:19;;;;;;;6.70;2.00;;;;;;;25.06;48.43;97174.66;107873;1283;22547;-73
2023/07/18 08:56:51;;;;;;;2.50;2.30;;;;;;;25.26;48.75;97173.48;107857;1277;22534;-73
2023/07/18 08:59:22;;;;;;;4.40;2.40;;;;;;;25.27;47.94;97176.67;107864;1283;23514;-72
2023/07/18 09:01:54;;;;;;;4.60;2.30;;;;;;;25.14;48.02;97178.30;107838;1282;22520;-71
2023/07/18 09:04:25;;;;;;;3.60;2.50;;;;;;;25.16;48.28;97178.19;107855;1283;22527;-72
2023/07/18 09:07:00;;;;;;;4.60;2.40;;;;;;;25.29;48.50;97177.34;107895;1280;22552;-72
2023/07/18 09:09:32;;;;;;;5.60;2.60;;;;;;;25.26;48.12;97175.73;107868;1277;24285;-73
2023/07/18 09:12:05;;;;;;;4.70;2.80;;;;;;;25.03;47.86;97169.55;107773;1283;22549;-73
2023/07/18 09:14:37;;;;;;;3.90;2.70;;;;;;;24.67;48.03;97170.45;107900;1283;27031;-73
2023/07/18 09:17:09;;;;;;;5.50;2.80;;;;;;;24.26;48.27;97172.10;107845;1283;22531;-72
2023/07/18 09:19:42;;;;;;;5.60;2.80;;;;;;;24.03;48.58;97180.46;107856;1283;22557;-73
2023/07/18 09:22:17;;;;;;;7.00;2.40;;;;;;;24.03;49.05;97174.97;107845;1283;22527;-73
2023/07/18 09:24:49;;;;;;;4.80;2.90;;;;;;;24.14;48.49;97167.09;107907;1283;24281;-72
2023/07/18 09:27:20;;;;;;;4.80;2.30;;;;;;;24.17;49.10;97167.86;107877;1283;22524;-73
2023/07/18 09:29:52;;;;;;;4.10;2.60;;;;;;;24.42;49.73;97164.64;107875;1264;22534;-72
2023/07/18 09:32:25;;;;;;;3.30;2.60;;;;;;;24.60;49.84;97162.85;107846;1281;25272;-73
2023/07/18 09:34:58;;;;;;;5.30;2.60;;;;;;;24.67;49.45;97157.90;107872;1283;22530;-73
2023/07/18 09:37:30;;;;;;;4.40;2.60;;;;;;;24.67;49.58;97150.47;107850;1283;22527;-72
2023/07/18 09:40:03;;;;;;;6.90;2.70;;;;;;;24.42;48.36;97150.30;107885;1283;22554;-72
2023/07/18 09:42:35;;;;;;;3.20;2.20;;;;;;;24.09;48.50;97152.28;107876;1280;22526;-73
2023/07/18 09:45:08;;;;;;;3.10;2.30;;;;;;;23.97;48.72;97145.98;107862;1280;22536;-73
2023/07/18 09:47:41;;;;;;;5.20;2.60;;;;;;;23.82;48.42;97148.71;107886;1283;22534;-73
2023/07/18 09:50:13;;;;;;;6.80;2.80;;;;;;;23.76;48.85;97147.70;107865;1283;25427;-73
2023/07/18 09:52:50;;;;;;;6.50;2.80;;;;;;;23.87;49.50;97147.52;107836;1283;22536;-73
2023/07/18 09:55:26;;;;;;;7.40;3.10;;;;;;;23.85;48.71;97147.23;107880;1278;25335;-73
2023/07/18 09:57:59;;;;;;;6.40;3.00;;;;;;;23.86;49.77;97145.48;107960;1275;22518;-73
2023/07/18 10:00:32;;;;;;;7.40;3.30;;;;;;;23.95;49.94;97138.27;107895;1283;22538;-73
2023/07/18 10:03:04;;;;;;;7.50;3.00;;;;;;;23.88;50.14;97143.14;107863;1283;25142;-73
2023/07/18 10:05:36;;;;;;;4.20;2.70;;;;;;;23.80;50.21;97144.41;107911;1283;22570;-73
2023/07/18 10:08:10;;;;;;;5.50;3.10;;;;;;;23.81;49.98;97144.67;107942;1283;22578;-73
2023/07/18 10:10:41;;;;;;;3.70;2.80;;;;;;;23.69;49.68;97140.29;107813;1283;22559;-73
2023/07/18 10:13:12;;;;;;;4.60;3.20;;;;;;;23.56;49.95;97139.41;108004;1280;22525;-73
2023/07/18 10:16:17;;;;;;;4.90;3.10;;;;;;;23.56;50.53;97135.48;107983;1282;22573;-73
2023/07/18 10:18:50;;;;;;;4.60;2.80;;;;;;;23.67;50.25;97131.27;107978;1282;22534;-73
2023/07/18 10:21:32;;;;;;;4.10;2.30;;;;;;;23.67;50.28;97130.88;108005;1283;22534;-73
2023/07/18 10:24:28;;;;;;;5.50;3.40;;;;;;;23.83;50.68;97123.29;107869;1283;24160;-73
2023/07/18 10:27:01;;;;;;;6.30;2.90;;;;;;;23.96;50.28;97114.84;107838;1283;22631;-73
2023/07/18 10:29:33;;;;;;;3.60;2.90;;;;;;;24.17;49.98;97114.98;107921;1280;25254;-71
2023/07/18 10:32:06;;;;;;;4.00;3.00;;;;;;;24.28;49.82;97113.54;107878;1277;23183;-71
2023/07/18 10:34:39;;;;;;;3.80;2.20;;;;;;;24.16;48.91;97114.59;108027;1267;22536;-71
2023/07/18 10:37:10;;;;;;;4.90;2.50;;;;;;;23.88;48.59;97108.02;107962;1275;22540;-71
2023/07/18 10:39:43;;;;;;;4.30;2.50;;;;;;;23.69;48.70;97107.11;107948;1282;22546;-70
2023/07/18 10:42:23;;;;;;;6.50;2.40;;;;;;;23.58;48.61;97108.39;107886;1275;22523;-71
2023/07/18 10:44:58;;;;;;;4.50;2.50;;;;;;;23.66;49.59;97100.45;107913;1280;23139;-71
2023/07/18 10:47:29;;;;;;;3.90;2.60;;;;;;;23.73;49.28;97101.23;107854;1283;22643;-71
2023/07/18 10:50:00;;;;;;;4.50;2.60;;;;;;;23.57;49.20;97095.66;107882;1283;22542;-71
2023/07/18 10:52:32;;;;;;;4.80;2.90;;;;;;;23.42;49.16;97102.26;107972;1280;22816;-71
2023/07/18 10:55:06;;;;;;;5.10;2.90;;;;;;;23.31;49.47;97098.88;108003;1282;22533;-71
2023/07/18 10:57:38;;;;;;;6.00;3.30;;;;;;;23.25;49.78;97093.17;108003;1283;22559;-71
2023/07/18 11:00:11;;;;;;;5.60;2.60;;;;;;;23.18;49.65;97093.05;108003;1279;22529;-71
2023/07/18 11:02:44;;;;;;;4.20;2.50;;;;;;;23.15;49.76;97088.37;107900;1283;22521;-70
2023/07/18 11:05:16;;;;;;;5.30;2.70;;;;;;;23.33;50.79;97085.16;107820;1283;24285;-71
2023/07/18 11:07:49;;;;;;;5.00;3.10;;;;;;;23.52;50.76;97080.23;107848;1277;22524;-71
2023/07/18 11:10:23;;;;;;;5.20;2.80;;;;;;;23.56;50.29;97075.90;107875;1283;22554;-71
2023/07/18 11:12:56;;;;;;;3.60;2.60;;;;;;;23.52;49.91;97067.16;107883;1282;22690;-71
2023/07/18 11:15:29;;;;;;;3.90;2.70;;;;;;;23.57;50.25;97065.76;107945;1282;22530;-70
2023/07/18 11:18:00;;;;;;;4.30;2.40;;;;;;;23.64;50.06;97061.91;107934;1279;22640;-71
2023/07/18 11:20:31;;;;;;;4.10;2.80;;;;;;;23.72;50.17;97055.88;107928;1277;22538;-71
2023/07/18 11:23:03;;;;;;;4.40;2.80;;;;;;;23.70;50.28;97055.61;107860;1283;22527;-71
2023/07/18 11:25:34;;;;;;;6.20;3.40;;;;;;;23.65;49.75;97057.04;107853;1283;22547;-71
2023/07/18 11:28:07;;;;;;;6.70;3.30;;;;;;;23.45;49.79;97058.41;107838;1277;22653;-71
2023/07/18 11:30:38;;;;;;;4.30;2.70;;;;;;;23.39;49.73;97055.58;107865;1283;22627;-71
2023/07/18 11:33:15;;;;;;;5.40;3.00;;;;;;;23.43;49.90;97055.96;107840;1280;23825;-71
2023/07/18 11:35:49;;;;;;;4.10;3.00;;;;;;;23.57;50.52;97050.59;107869;1280;22533;-71
2023/07/18 11:38:23;;;;;;;5.90;3.20;;;;;;;23.77;50.38;97042.46;107887;1283;22531;-71
2023/07/18 11:40:58;;;;;;;4.60;2.70;;;;;;;23.96;51.07;97041.87;107861;1283;24248;-71
2023/07/18 11:43:32;;;;;;;5.30;2.70;;;;;;;24.04;50.47;97036.23;107908;1280;22658;-71
2023/07/18 11:46:03;;;;;;;6.20;2.60;;;;;;;24.05;50.25;97033.00;107891;1283;22537;-71